createdAt,value
2022-09-28T00:01:07.877Z,95943.91
2022-09-28T00:03:36.236Z,95939.56
2022-09-28T00:06:05.182Z,95938.84
2022-09-28T00:08:33.533Z,95938.84
2022-09-28T00:11:01.738Z,95944.06
2022-09-28T00:13:31.826Z,95935.84
2022-09-28T00:16:01.371Z,95922.41
2022-09-28T00:18:29.716Z,95922.41
2022-09-28T00:21:02.245Z,95926.09
2022-09-28T00:23:30.419Z,95932.34
2022-09-28T00:26:02.581Z,95935.03
2022-09-28T00:28:32.347Z,95937.72
2022-09-28T00:31:01.347Z,95941.22
2022-09-28T00:33:29.823Z,95941.38
2022-09-28T00:35:58.501Z,95938.69
2022-09-28T00:38:29.702Z,95932.59
2022-09-28T00:40:59.661Z,95938.84
2022-09-28T00:43:28.220Z,95932.59
2022-09-28T00:46:00.472Z,95929.91
2022-09-28T00:48:30.114Z,95932.59
2022-09-28T00:50:58.258Z,95934.44
2022-09-28T00:53:27.326Z,95935.28
2022-09-28T00:55:56.200Z,95939.09
2022-09-28T00:58:25.358Z,95939.97
2022-09-28T01:00:53.564Z,95945.34
2022-09-28T01:03:23.513Z,95944.47
2022-09-28T01:05:51.802Z,95951.84
2022-09-28T01:08:21.256Z,95937.56
2022-09-28T01:10:49.974Z,95944.63
2022-09-28T01:13:21.402Z,95942.09
2022-09-28T01:15:53.067Z,95946.59
2022-09-28T01:18:26.697Z,95943.91
2022-09-28T01:21:02.359Z,95926.94
2022-09-28T01:23:54.447Z,95925.97
2022-09-28T01:26:47.929Z,95916.19
2022-09-28T01:29:20.418Z,95910.81
2022-09-28T01:31:52.413Z,95912.66
2022-09-28T01:34:25.906Z,95904.59
2022-09-28T01:36:55.467Z,95905.41
2022-09-28T01:39:25.972Z,95903.75
2022-09-28T01:41:56.058Z,95899.22
2022-09-28T01:44:26.137Z,95893.84
2022-09-28T01:46:55.533Z,95888.47
2022-09-28T01:49:25.599Z,95900.19
2022-09-28T01:51:55.583Z,95896.66
2022-09-28T01:54:27.253Z,95896.78
2022-09-28T01:56:59.162Z,95893.22
2022-09-28T01:59:28.632Z,95894.09
2022-09-28T02:01:59.750Z,95893.97
2022-09-28T02:04:29.770Z,95888.72
2022-09-28T02:06:59.042Z,95893.22
2022-09-28T02:09:33.700Z,95890.44
2022-09-28T02:12:06.403Z,95882.38
2022-09-28T02:14:35.026Z,95886.03
2022-09-28T02:17:03.526Z,95882.63
2022-09-28T02:19:32.979Z,95880.94
2022-09-28T02:22:03.671Z,95885.31
2022-09-28T02:24:37.070Z,95876.38
2022-09-28T02:27:10.517Z,95876.38
2022-09-28T02:29:38.905Z,95877.38
2022-09-28T02:32:07.322Z,95870.28
2022-09-28T02:34:36.255Z,95871.16
2022-09-28T02:37:04.493Z,95880.06
2022-09-28T02:39:32.914Z,95880.22
2022-09-28T02:42:07.045Z,95873.84
2022-09-28T02:44:46.146Z,95857.72
2022-09-28T02:47:23.165Z,95871.16
2022-09-28T02:49:52.721Z,95872.88
2022-09-28T02:52:39.198Z,95859.53
2022-09-28T02:55:18.765Z,95863.09
2022-09-28T02:57:55.607Z,95866.91
2022-09-28T03:00:25.583Z,95871.31
2022-09-28T03:03:01.606Z,95875.81
2022-09-28T03:05:34.410Z,95879.50
2022-09-28T03:08:03.462Z,95876.81
2022-09-28T03:10:36.701Z,95879.50
2022-09-28T03:13:05.215Z,95871.31
2022-09-28T03:15:36.301Z,95870.59
2022-09-28T03:18:05.213Z,95869.75
2022-09-28T03:20:33.964Z,95869.75
2022-09-28T03:25:51.411Z,95869.75
2022-09-28T03:28:21.398Z,95862.53
2022-09-28T03:30:51.500Z,95860.81
2022-09-28T03:33:20.161Z,95860.81
2022-09-28T03:35:49.213Z,95839.31
2022-09-28T03:38:18.327Z,95838.50
2022-09-28T03:40:54.187Z,95836.63
2022-09-28T03:43:22.595Z,95830.53
2022-09-28T03:45:56.476Z,95826.88
2022-09-28T03:48:29.872Z,95834.09
2022-09-28T03:51:01.430Z,95839.31
2022-09-28T03:53:30.171Z,95836.78
2022-09-28T03:56:03.642Z,95840.16
2022-09-28T03:58:32.583Z,95834.09
2022-09-28T04:01:04.725Z,95832.41
2022-09-28T04:03:33.013Z,95830.69
2022-09-28T04:06:01.298Z,95833.38
2022-09-28T04:08:29.669Z,95836.06
2022-09-28T04:10:58.684Z,95829.97
2022-09-28T04:13:28.209Z,95818.41
2022-09-28T04:15:57.364Z,95808.47
2022-09-28T04:18:28.258Z,95817.41
2022-09-28T04:21:12.958Z,95816.53
2022-09-28T04:23:47.163Z,95817.41
2022-09-28T04:26:17.844Z,95812.88
2022-09-28T04:29:06.557Z,95816.53
2022-09-28T04:31:38.982Z,95816.41
2022-09-28T04:34:08.732Z,95817.25
2022-09-28T04:36:37.220Z,95827.84
2022-09-28T04:39:05.479Z,95825.31
2022-09-28T04:41:34.350Z,95826.16
2022-09-28T04:44:03.147Z,95821.78
2022-09-28T04:46:31.855Z,95820.78
2022-09-28T04:49:20.259Z,95829.72
2022-09-28T04:51:56.571Z,95823.50
2022-09-28T04:54:24.790Z,95829.56
2022-09-28T04:56:53.459Z,95825.06
2022-09-28T04:59:21.814Z,95824.34
2022-09-28T05:01:50.440Z,95817.09
2022-09-28T05:04:39.002Z,95812.59
2022-09-28T05:07:27.618Z,95817.00
2022-09-28T05:09:56.662Z,95815.97
2022-09-28T05:12:24.835Z,95824.03
2022-09-28T05:14:53.275Z,95825.88
2022-09-28T05:17:21.583Z,95820.38
2022-09-28T05:19:51.252Z,95818.66
2022-09-28T05:22:19.514Z,95811.47
2022-09-28T05:24:48.054Z,95818.50
2022-09-28T05:27:16.585Z,95812.16
2022-09-28T05:29:48.015Z,95827.28
2022-09-28T05:32:34.458Z,95834.53
2022-09-28T05:35:26.910Z,95833.53
2022-09-28T05:37:56.218Z,95822.50
2022-09-28T05:40:24.640Z,95825.19
2022-09-28T05:42:52.953Z,95817.94
2022-09-28T05:45:21.202Z,95822.22
2022-09-28T05:47:49.535Z,95820.09
2022-09-28T05:50:20.479Z,95815.59
2022-09-28T05:52:58.623Z,95803.84
2022-09-28T05:55:27.177Z,95809.78
2022-09-28T05:57:55.323Z,95803.56
2022-09-28T06:00:23.719Z,95797.91
2022-09-28T06:03:00.046Z,95797.91
2022-09-28T06:05:29.480Z,95792.38
2022-09-28T06:07:59.231Z,95789.69
2022-09-28T06:10:28.016Z,95786.00
2022-09-28T06:13:00.483Z,95789.38
2022-09-28T06:15:29.515Z,95791.78
2022-09-28T06:17:59.789Z,95788.97
2022-09-28T06:20:38.777Z,95783.56
2022-09-28T06:23:15.958Z,95796.88
2022-09-28T06:25:44.875Z,95797.03
2022-09-28T06:28:13.929Z,95801.44
2022-09-28T06:30:42.323Z,95800.56
2022-09-28T06:33:14.149Z,95804.13
2022-09-28T06:35:42.600Z,95795.19
2022-09-28T06:38:11.032Z,95797.72
2022-09-28T06:40:40.829Z,95789.66
2022-09-28T06:43:11.367Z,95792.34
2022-09-28T06:45:58.030Z,95801.97
2022-09-28T06:48:33.638Z,95786.81
2022-09-28T06:51:02.633Z,95773.38
2022-09-28T06:53:54.091Z,95768.16
2022-09-28T06:56:43.707Z,95758.25
2022-09-28T06:59:12.113Z,95754.53
2022-09-28T07:01:40.463Z,95754.69
2022-09-28T07:04:21.768Z,95751.03
2022-09-28T07:07:16.315Z,95762.50
2022-09-28T07:10:03.318Z,95746.34
2022-09-28T07:12:59.441Z,95752.72
2022-09-28T07:15:37.994Z,95744.50
2022-09-28T07:18:07.087Z,95731.91
2022-09-28T07:20:45.140Z,95728.22
2022-09-28T07:23:20.953Z,95722.84
2022-09-28T07:26:27.246Z,95708.56
2022-09-28T07:29:15.218Z,95714.09
2022-09-28T07:31:56.687Z,95724.84
2022-09-28T07:35:00.392Z,95722.16
2022-09-28T07:37:38.369Z,95721.28
2022-09-28T07:40:25.687Z,95716.78
2022-09-28T07:42:54.246Z,95706.84
2022-09-28T07:45:24.637Z,95706.84
2022-09-28T07:47:56.079Z,95706.03
2022-09-28T07:50:51.886Z,95710.38
2022-09-28T07:53:34.483Z,95709.53
2022-09-28T07:56:28.491Z,95708.56
2022-09-28T07:59:26.454Z,95718.44
2022-09-28T08:02:14.805Z,95714.09
2022-09-28T08:04:43.465Z,95716.78
2022-09-28T08:07:11.955Z,95714.09
2022-09-28T08:09:41.603Z,95707.53
2022-09-28T08:12:19.782Z,95706.72
2022-09-28T08:15:00.266Z,95713.06
2022-09-28T08:17:41.847Z,95721.00
2022-09-28T08:20:28.177Z,95719.16
2022-09-28T08:22:56.926Z,95706.56
2022-09-28T08:25:25.651Z,95708.41
2022-09-28T08:27:53.968Z,95709.25
2022-09-28T08:30:23.184Z,95701.19
2022-09-28T08:33:13.673Z,95714.63
2022-09-28T08:35:44.764Z,95716.47
2022-09-28T08:38:29.558Z,95709.25
2022-09-28T08:41:20.155Z,95685.03
2022-09-28T08:44:17.359Z,95679.66
2022-09-28T08:47:05.535Z,95664.50
2022-09-28T08:49:46.279Z,95670.75
2022-09-28T08:52:39.311Z,95674.44
2022-09-28T08:55:38.186Z,95668.06
2022-09-28T08:58:11.930Z,95670.75
2022-09-28T09:00:42.419Z,95668.06
2022-09-28T09:03:11.937Z,95667.19
2022-09-28T09:05:48.499Z,95673.44
2022-09-28T09:08:28.875Z,95683.22
2022-09-28T09:10:59.538Z,95670.47
2022-09-28T09:13:50.949Z,95664.94
2022-09-28T09:16:29.717Z,95653.31
2022-09-28T09:19:36.533Z,95651.47
2022-09-28T09:22:35.457Z,95659.56
2022-09-28T09:25:08.221Z,95659.56
2022-09-28T09:27:43.978Z,95661.53
2022-09-28T09:30:13.708Z,95661.97
2022-09-28T09:33:06.496Z,95653.06
2022-09-28T09:35:52.361Z,95651.06
2022-09-28T09:39:04.402Z,95659.84
2022-09-28T09:42:00.158Z,95647.09
2022-09-28T09:44:56.713Z,95656.69
2022-09-28T09:47:44.710Z,95639.59
2022-09-28T09:50:30.135Z,95642.13
2022-09-28T09:53:02.029Z,95645.66
2022-09-28T09:55:33.195Z,95636.59
2022-09-28T09:58:19.591Z,95633.59
2022-09-28T10:00:54.046Z,95633.13
2022-09-28T10:03:44.190Z,95633.00
2022-09-28T10:06:18.084Z,95628.16
2022-09-28T10:08:49.547Z,95637.63
2022-09-28T10:11:22.845Z,95635.31
2022-09-28T10:13:55.419Z,95636.03
2022-09-28T10:16:43.204Z,95627.81
2022-09-28T10:19:17.992Z,95617.75
2022-09-28T10:22:06.732Z,95629.34
2022-09-28T10:24:37.289Z,95632.88
2022-09-28T10:27:08.742Z,95647.34
2022-09-28T10:29:41.999Z,95647.19
2022-09-28T10:32:19.606Z,95643.66
2022-09-28T10:34:50.827Z,95642.78
2022-09-28T10:37:22.518Z,95640.09
2022-09-28T10:40:33.363Z,95642.78
2022-09-28T10:43:04.349Z,95631.22
2022-09-28T10:45:36.113Z,95632.03
2022-09-28T10:48:06.623Z,95625.81
2022-09-28T10:50:35.711Z,95628.34
2022-09-28T10:53:19.569Z,95624.81
2022-09-28T10:56:20.872Z,95617.88
2022-09-28T10:58:53.810Z,95620.56
2022-09-28T11:01:34.614Z,95611.81
2022-09-28T11:04:06.286Z,95602.75
2022-09-28T11:06:37.990Z,95604.59
2022-09-28T11:09:08.694Z,95600.06
2022-09-28T11:11:41.527Z,95594.69
2022-09-28T11:14:23.530Z,95583.91
2022-09-28T11:16:53.886Z,95580.38
2022-09-28T11:19:29.014Z,95587.47
2022-09-28T11:21:57.454Z,95581.91
2022-09-28T11:24:34.811Z,95572.13
2022-09-28T11:27:05.727Z,95574.81
2022-09-28T11:29:38.761Z,95575.84
2022-09-28T11:32:22.357Z,95567.78
2022-09-28T11:35:32.262Z,95565.94
2022-09-28T11:38:07.487Z,95563.94
2022-09-28T11:41:12.262Z,95561.25
2022-09-28T11:43:52.593Z,95558.56
2022-09-28T11:46:27.351Z,95557.69
2022-09-28T11:48:59.752Z,95555.88
2022-09-28T11:51:28.723Z,95556.84
2022-09-28T11:53:58.251Z,95545.91
2022-09-28T11:56:32.609Z,95541.56
2022-09-28T11:59:04.087Z,95552.16
2022-09-28T12:01:45.151Z,95553.88
2022-09-28T12:04:21.316Z,95546.59
2022-09-28T12:06:52.703Z,95545.78
2022-09-28T12:09:27.002Z,95539.56
2022-09-28T12:12:04.477Z,95535.03
2022-09-28T12:14:43.703Z,95532.16
2022-09-28T12:17:20.223Z,95535.03
2022-09-28T12:19:49.836Z,95529.94
2022-09-28T12:22:19.787Z,95532.78
2022-09-28T12:24:49.581Z,95524.03
2022-09-28T12:27:20.383Z,95525.16
2022-09-28T12:29:51.892Z,95519.63
2022-09-28T12:32:27.383Z,95516.09
2022-09-28T12:34:56.038Z,95518.94
2022-09-28T12:37:33.336Z,95514.56
2022-09-28T12:40:29.574Z,95512.50
2022-09-28T12:43:05.570Z,95508.69
2022-09-28T12:45:59.772Z,95505.03
2022-09-28T12:49:33.165Z,95508.94
2022-09-28T12:51:48.039Z,95511.47
2022-09-28T12:54:33.057Z,95508.66
2022-09-28T12:57:06.607Z,95507.63
2022-09-28T12:59:36.963Z,95512.03
2022-09-28T13:02:24.925Z,95503.97
2022-09-28T13:05:01.668Z,95502.94
2022-09-28T13:07:32.177Z,95495.72
2022-09-28T13:10:05.695Z,95507.34
2022-09-28T13:12:40.938Z,95505.47
2022-09-28T13:15:24.864Z,95507.19
2022-09-28T13:18:00.506Z,95507.47
2022-09-28T13:20:39.575Z,95514.66
2022-09-28T13:23:17.032Z,95528.72
2022-09-28T13:25:47.814Z,95524.47
2022-09-28T13:28:16.777Z,95521.63
2022-09-28T13:30:45.344Z,95526.00
2022-09-28T13:33:18.533Z,95518.63
2022-09-28T13:35:48.169Z,95507.88
2022-09-28T13:38:49.840Z,95501.81
2022-09-28T13:41:23.480Z,95503.63
2022-09-28T13:44:35.184Z,95497.41
2022-09-28T13:47:13.222Z,95493.88
2022-09-28T13:49:50.095Z,95503.81
2022-09-28T13:52:32.242Z,95506.50
2022-09-28T13:55:09.616Z,95501.94
2022-09-28T13:57:42.182Z,95506.50
2022-09-28T14:00:18.806Z,95504.94
2022-09-28T14:02:48.514Z,95506.78
2022-09-28T14:05:49.367Z,95518.56
2022-09-28T14:08:35.176Z,95512.47
2022-09-28T14:11:45.250Z,95504.41
2022-09-28T14:14:30.511Z,95503.72
2022-09-28T14:17:52.042Z,95508.25
2022-09-28T14:20:20.763Z,95519.28
2022-09-28T14:23:14.906Z,95521.97
2022-09-28T14:25:46.298Z,95521.69
2022-09-28T14:28:31.903Z,95521.53
2022-09-28T14:31:00.940Z,95514.16
2022-09-28T14:33:29.627Z,95511.19
2022-09-28T14:35:58.963Z,95506.78
2022-09-28T14:38:47.076Z,95514.69
2022-09-28T14:41:29.847Z,95517.38
2022-09-28T14:44:05.734Z,95515.53
2022-09-28T14:46:36.174Z,95511.88
2022-09-28T14:49:05.714Z,95509.31
2022-09-28T14:52:04.717Z,95514.69
2022-09-28T14:54:46.651Z,95516.41
2022-09-28T14:57:30.213Z,95517.25
2022-09-28T14:59:59.591Z,95520.63
2022-09-28T15:02:30.506Z,95512.56
2022-09-28T15:05:01.151Z,95510.69
2022-09-28T15:07:33.002Z,95513.38
2022-09-28T15:10:02.274Z,95517.25
2022-09-28T15:12:31.918Z,95504.94
2022-09-28T15:15:02.394Z,95512.84
2022-09-28T15:17:34.616Z,95511.88
2022-09-28T15:20:23.417Z,95510.84
2022-09-28T15:22:52.942Z,95515.38
2022-09-28T15:25:22.508Z,95516.25
2022-09-28T15:27:54.269Z,95509.19
2022-09-28T15:30:27.625Z,95508.16
2022-09-28T15:32:57.055Z,95511.88
2022-09-28T15:35:26.330Z,95520.63
2022-09-28T15:37:55.709Z,95518.94
2022-09-28T15:40:31.669Z,95530.53
2022-09-28T15:43:02.611Z,95526.00
2022-09-28T15:45:33.174Z,95513.38
2022-09-28T15:48:19.360Z,95510.56
2022-09-28T15:51:01.518Z,95516.06
2022-09-28T15:53:31.615Z,95516.25
2022-09-28T15:56:10.005Z,95525.16
2022-09-28T15:58:40.073Z,95529.84
2022-09-28T16:01:27.270Z,95525.31
2022-09-28T16:03:55.608Z,95524.31
2022-09-28T16:06:24.400Z,95523.63
2022-09-28T16:08:52.584Z,95523.94
2022-09-28T16:11:21.631Z,95521.69
2022-09-28T16:13:56.982Z,95528.06
2022-09-28T16:16:27.798Z,95535.84
2022-09-28T16:18:56.031Z,95527.59
2022-09-28T16:21:33.942Z,95522.91
2022-09-28T16:24:02.397Z,95527.44
2022-09-28T16:26:32.619Z,95532.81
2022-09-28T16:29:02.297Z,95529.16
2022-09-28T16:31:34.582Z,95539.91
2022-09-28T16:34:11.646Z,95530.81
2022-09-28T16:36:42.817Z,95535.22
2022-09-28T16:39:11.764Z,95541.59
2022-09-28T16:41:40.533Z,95547.28
2022-09-28T16:44:15.444Z,95538.69
2022-09-28T16:46:44.437Z,95544.06
2022-09-28T16:49:18.778Z,95547.44
2022-09-28T16:51:47.993Z,95542.06
2022-09-28T16:54:35.373Z,95549.13
2022-09-28T16:57:03.615Z,95542.06
2022-09-28T16:59:33.379Z,95536.69
2022-09-28T17:02:01.772Z,95543.91
2022-09-28T17:04:29.953Z,95544.75
2022-09-28T17:06:58.484Z,95540.06
2022-09-28T17:09:26.684Z,95539.38
2022-09-28T17:11:56.192Z,95541.91
2022-09-28T17:14:25.059Z,95541.06
2022-09-28T17:17:08.147Z,95539.22
2022-09-28T17:19:37.883Z,95541.22
2022-09-28T17:22:08.229Z,95538.53
2022-09-28T17:24:36.449Z,95536.69
2022-09-28T17:27:07.019Z,95525.94
2022-09-28T17:29:35.470Z,95531.31
2022-09-28T17:32:10.246Z,95534.97
2022-09-28T17:34:38.440Z,95539.38
2022-09-28T17:37:06.955Z,95532.00
2022-09-28T17:39:35.458Z,95525.78
2022-09-28T17:42:05.433Z,95536.53
2022-09-28T17:44:35.520Z,95530.13
2022-09-28T17:47:05.299Z,95535.38
2022-09-28T17:49:36.202Z,95539.06
2022-09-28T17:52:05.632Z,95542.75
2022-09-28T17:54:33.889Z,95545.28
2022-09-28T17:57:02.101Z,95548.13
2022-09-28T17:59:31.444Z,95551.53
2022-09-28T18:02:02.351Z,95546.28
2022-09-28T18:04:51.267Z,95540.06
2022-09-28T18:07:20.863Z,95541.75
2022-09-28T18:09:49.259Z,95539.06
2022-09-28T18:12:17.531Z,95536.38
2022-09-28T18:14:47.257Z,95545.44
2022-09-28T18:17:15.475Z,95549.81
2022-09-28T18:19:45.275Z,95546.16
2022-09-28T18:22:13.471Z,95543.59
2022-09-28T18:24:42.022Z,95544.44
2022-09-28T18:27:10.243Z,95534.53
2022-09-28T18:29:38.424Z,95544.44
2022-09-28T18:32:06.698Z,95539.06
2022-09-28T18:34:37.178Z,95541.59
2022-09-28T18:37:07.180Z,95537.06
2022-09-28T18:39:36.362Z,95541.59
2022-09-28T18:42:04.897Z,95540.75
2022-09-28T18:44:33.147Z,95540.59
2022-09-28T18:47:02.778Z,95536.09
2022-09-28T18:49:31.638Z,95539.47
2022-09-28T18:51:59.890Z,95542.16
2022-09-28T18:54:29.486Z,95543.13
2022-09-28T18:56:57.807Z,95542.44
2022-09-28T18:59:26.067Z,95541.75
2022-09-28T19:01:54.441Z,95552.66
2022-09-28T19:04:22.970Z,95550.97
2022-09-28T19:06:52.561Z,95549.28
2022-09-28T19:09:21.922Z,95550.25
2022-09-28T19:11:51.870Z,95553.97
2022-09-28T19:14:20.290Z,95550.41
2022-09-28T19:16:48.595Z,95549.56
2022-09-28T19:19:17.802Z,95548.75
2022-09-28T19:21:46.532Z,95540.81
2022-09-28T19:24:15.123Z,95541.81
2022-09-28T19:26:43.798Z,95551.56
2022-09-28T19:29:13.468Z,95551.72
2022-09-28T19:31:43.315Z,95552.72
2022-09-28T19:34:13.528Z,95565.31
2022-09-28T19:36:43.045Z,95559.09
2022-09-28T19:39:13.795Z,95557.41
2022-09-28T19:41:51.408Z,95565.47
2022-09-28T19:44:35.890Z,95572.84
2022-09-28T19:47:07.113Z,95555.69
2022-09-28T19:49:36.858Z,95552.31
2022-09-28T19:52:13.482Z,95556.72
2022-09-28T19:54:43.982Z,95557.84
2022-09-28T19:57:13.580Z,95569.47
2022-09-28T19:59:43.262Z,95566.78
2022-09-28T20:02:11.657Z,95568.63
2022-09-28T20:04:39.871Z,95567.75
2022-09-28T20:07:08.118Z,95567.75
2022-09-28T20:09:36.392Z,95569.59
2022-09-28T20:12:04.890Z,95575.97
2022-09-28T20:14:38.006Z,95582.22
2022-09-28T20:17:10.795Z,95583.19
2022-09-28T20:19:39.302Z,95593.09
2022-09-28T20:22:07.562Z,95590.41
2022-09-28T20:24:36.018Z,95593.25
2022-09-28T20:27:04.251Z,95591.41
2022-09-28T20:29:33.595Z,95594.25
2022-09-28T20:32:04.111Z,95597.78
2022-09-28T20:34:34.589Z,95593.41
2022-09-28T20:37:02.850Z,95589.88
2022-09-28T20:39:31.070Z,95576.56
2022-09-28T20:41:59.255Z,95564.97
2022-09-28T20:44:27.575Z,95563.28
2022-09-28T20:46:56.882Z,95565.97
2022-09-28T20:49:26.377Z,95566.09
2022-09-28T20:51:56.198Z,95560.72
2022-09-28T20:54:24.439Z,95565.28
2022-09-28T20:56:52.753Z,95566.25
2022-09-28T20:59:23.000Z,95574.31
2022-09-28T21:01:51.348Z,95579.69
2022-09-28T21:04:20.160Z,95577.16
2022-09-28T21:06:49.026Z,95574.63
2022-09-28T21:09:18.743Z,95577.31
2022-09-28T21:11:48.222Z,95586.38
2022-09-28T21:14:16.897Z,95582.72
2022-09-28T21:16:45.214Z,95582.81
2022-09-28T21:19:13.622Z,95590.91
2022-09-28T21:21:41.853Z,95595.44
2022-09-28T21:24:10.317Z,95590.06
2022-09-28T21:26:40.187Z,95592.88
2022-09-28T21:29:09.251Z,95585.84
2022-09-28T21:31:39.387Z,95586.69
2022-09-28T21:34:07.718Z,95576.91
2022-09-28T21:36:36.329Z,95574.22
2022-09-28T21:39:09.547Z,95567.97
2022-09-28T21:41:40.054Z,95574.34
2022-09-28T21:44:08.350Z,95573.50
2022-09-28T21:46:36.889Z,95573.50
2022-09-28T21:49:06.387Z,95575.31
2022-09-28T21:51:34.679Z,95574.50
2022-09-28T21:54:03.008Z,95570.97
2022-09-28T21:56:31.273Z,95575.47
2022-09-28T21:59:01.422Z,95584.56
2022-09-28T22:01:29.802Z,95595.31
2022-09-28T22:03:58.177Z,95575.78
2022-09-28T22:06:28.404Z,95576.63
2022-09-28T22:08:56.802Z,95566.72
2022-09-28T22:11:25.662Z,95565.03
2022-09-28T22:13:54.719Z,95570.53
2022-09-28T22:16:25.925Z,95574.09
2022-09-28T22:18:54.227Z,95577.78
2022-09-28T22:21:23.641Z,95590.38
2022-09-28T22:23:52.046Z,95585.97
2022-09-28T22:26:21.678Z,95575.22
2022-09-28T22:28:50.701Z,95574.53
2022-09-28T22:31:19.874Z,95571.81
2022-09-28T22:33:50.067Z,95572.84
2022-09-28T22:36:18.955Z,95577.34
2022-09-28T22:38:47.365Z,95581.75
2022-09-28T22:41:15.982Z,95587.28
2022-09-28T22:43:44.404Z,95590.94
2022-09-28T22:46:13.701Z,95599.00
2022-09-28T22:48:42.445Z,95588.25
2022-09-28T22:51:12.115Z,95592.78
2022-09-28T22:53:40.415Z,95596.47
2022-09-28T22:56:09.009Z,95595.63
2022-09-28T22:58:37.577Z,95594.78
2022-09-28T23:01:09.647Z,95591.25
2022-09-28T23:03:40.185Z,95591.25
2022-09-28T23:06:08.543Z,95585.19
2022-09-28T23:08:38.275Z,95595.09
2022-09-28T23:11:06.928Z,95603.00
2022-09-28T23:13:35.285Z,95591.53
2022-09-28T23:16:04.547Z,95590.56
2022-09-28T23:18:33.656Z,95586.16
2022-09-28T23:21:03.148Z,95592.41
2022-09-28T23:23:31.633Z,95589.88
2022-09-28T23:26:01.575Z,95590.56
2022-09-28T23:28:30.342Z,95591.53
2022-09-28T23:30:58.625Z,95591.69
2022-09-28T23:33:26.869Z,95586.16
2022-09-28T23:35:55.199Z,95573.75
2022-09-28T23:38:23.533Z,95567.50
2022-09-28T23:40:51.861Z,95580.94
2022-09-28T23:43:21.546Z,95576.44
2022-09-28T23:45:49.836Z,95577.41
2022-09-28T23:48:18.372Z,95578.25
2022-09-28T23:50:46.604Z,95581.09
2022-09-28T23:53:15.201Z,95572.03
2022-09-28T23:55:43.970Z,95573.84
2022-09-28T23:58:12.844Z,95566.81
